createdAt,value
2023-12-30T00:01:59.772Z,6.97
2023-12-30T00:04:50.515Z,1.92
2023-12-30T00:07:41.235Z,7.93
2023-12-30T00:10:32.094Z,2.83
2023-12-30T00:13:22.936Z,4.20
2023-12-30T00:16:14.749Z,6.53
2023-12-30T00:19:05.528Z,10.23
2023-12-30T00:21:56.369Z,3.90
2023-12-30T00:24:47.328Z,4.75
2023-12-30T00:27:38.301Z,2.63
2023-12-30T00:30:29.014Z,1.88
2023-12-30T00:33:19.842Z,0.85
2023-12-30T00:36:10.686Z,3.08
2023-12-30T00:39:02.580Z,1.27
2023-12-30T00:41:53.636Z,2.05
2023-12-30T00:44:44.346Z,2.65
2023-12-30T00:47:35.146Z,3.25
2023-12-30T00:50:25.859Z,1.63
2023-12-30T00:53:16.722Z,3.80
2023-12-30T00:56:07.645Z,2.33
2023-12-30T00:58:58.732Z,1.23
2023-12-30T01:01:49.531Z,3.33
2023-12-30T01:04:40.430Z,2.05
2023-12-30T01:07:31.277Z,1.80
2023-12-30T01:10:22.968Z,2.60
2023-12-30T01:13:13.807Z,1.33
2023-12-30T01:16:08.135Z,2.00
2023-12-30T01:18:59.386Z,1.02
2023-12-30T01:21:50.166Z,2.35
2023-12-30T01:24:40.866Z,0.93
2023-12-30T01:27:31.527Z,1.48
2023-12-30T01:30:22.394Z,1.17
2023-12-30T01:33:13.275Z,1.27
2023-12-30T01:36:05.195Z,0.93
2023-12-30T01:38:55.905Z,2.75
2023-12-30T01:41:46.722Z,1.15
2023-12-30T01:44:37.861Z,2.67
2023-12-30T01:47:28.754Z,2.85
2023-12-30T01:50:19.905Z,0.93
2023-12-30T01:53:11.797Z,1.42
2023-12-30T01:56:02.682Z,0.75
2023-12-30T01:58:53.814Z,1.10
2023-12-30T02:01:46.572Z,2.25
2023-12-30T02:04:39.341Z,2.15
2023-12-30T02:07:30.190Z,0.82
2023-12-30T02:10:21.203Z,2.40
2023-12-30T02:13:12.430Z,2.85
2023-12-30T02:16:03.441Z,0.60
2023-12-30T02:18:54.299Z,1.20
2023-12-30T02:21:46.167Z,1.02
2023-12-30T02:24:37.186Z,1.30
2023-12-30T02:27:27.905Z,1.42
2023-12-30T02:30:18.756Z,0.95
2023-12-30T02:33:09.898Z,2.40
2023-12-30T02:36:00.827Z,1.17
2023-12-30T02:38:51.519Z,1.50
2023-12-30T02:41:42.297Z,1.50
2023-12-30T02:44:33.439Z,1.02
2023-12-30T02:47:24.116Z,0.95
2023-12-30T02:50:14.854Z,2.92
2023-12-30T02:53:05.556Z,1.08
2023-12-30T02:55:56.447Z,1.73
2023-12-30T02:58:53.762Z,1.02
2023-12-30T03:01:44.644Z,1.30
2023-12-30T03:04:35.600Z,4.80
2023-12-30T03:07:27.192Z,0.63
2023-12-30T03:10:18.130Z,2.05
2023-12-30T03:13:08.939Z,0.80
2023-12-30T03:15:59.875Z,1.60
2023-12-30T03:18:50.825Z,2.08
2023-12-30T03:21:41.733Z,2.38
2023-12-30T03:24:32.427Z,1.00
2023-12-30T03:27:23.142Z,0.60
2023-12-30T03:30:14.336Z,1.33
2023-12-30T03:33:05.690Z,6.72
2023-12-30T03:35:56.613Z,1.30
2023-12-30T03:38:53.425Z,1.88
2023-12-30T03:41:44.093Z,0.93
2023-12-30T03:44:34.993Z,2.35
2023-12-30T03:47:25.764Z,1.83
2023-12-30T03:50:16.562Z,0.50
2023-12-30T03:53:07.327Z,6.82
2023-12-30T03:55:58.010Z,1.77
2023-12-30T03:58:48.736Z,1.02
2023-12-30T04:01:43.544Z,1.35
2023-12-30T04:04:34.512Z,1.27
2023-12-30T04:07:25.340Z,0.95
2023-12-30T04:10:18.590Z,0.80
2023-12-30T04:13:10.893Z,0.52
2023-12-30T04:16:01.853Z,1.30
2023-12-30T04:18:52.664Z,0.70
2023-12-30T04:21:43.366Z,2.17
2023-12-30T04:24:34.142Z,0.65
2023-12-30T04:27:24.806Z,1.15
2023-12-30T04:30:15.687Z,0.77
2023-12-30T04:33:07.708Z,0.40
2023-12-30T04:35:58.745Z,0.93
2023-12-30T04:38:49.570Z,3.40
2023-12-30T04:41:40.284Z,0.63
2023-12-30T04:44:30.986Z,0.73
2023-12-30T04:47:21.782Z,0.43
2023-12-30T04:50:12.611Z,1.45
2023-12-30T04:53:03.723Z,1.70
2023-12-30T04:55:54.539Z,2.95
2023-12-30T04:58:45.589Z,1.55
2023-12-30T05:01:37.337Z,1.42
2023-12-30T05:04:28.155Z,1.27
2023-12-30T05:07:18.922Z,0.50
2023-12-30T05:10:11.320Z,0.80
2023-12-30T05:13:03.030Z,0.57
2023-12-30T05:15:54.182Z,0.75
2023-12-30T05:18:45.098Z,1.00
2023-12-30T05:21:38.080Z,1.27
2023-12-30T05:24:28.926Z,0.70
2023-12-30T05:27:19.628Z,2.30
2023-12-30T05:30:10.888Z,1.20
2023-12-30T05:33:02.068Z,1.05
2023-12-30T05:35:52.969Z,2.25
2023-12-30T05:38:43.691Z,0.40
2023-12-30T05:41:34.424Z,1.50
2023-12-30T05:44:25.241Z,0.90
2023-12-30T05:47:15.968Z,0.40
2023-12-30T05:50:07.777Z,0.93
2023-12-30T05:52:58.746Z,1.55
2023-12-30T05:55:49.618Z,2.55
2023-12-30T05:58:40.380Z,1.48
2023-12-30T06:01:31.214Z,0.50
2023-12-30T06:04:21.981Z,0.65
2023-12-30T06:07:12.805Z,1.05
2023-12-30T06:10:03.743Z,3.03
2023-12-30T06:12:54.627Z,1.50
2023-12-30T06:15:50.806Z,0.40
2023-12-30T06:18:41.759Z,0.63
2023-12-30T06:21:32.550Z,1.67
2023-12-30T06:24:27.356Z,0.50
2023-12-30T06:27:20.208Z,3.78
2023-12-30T06:30:11.404Z,1.05
2023-12-30T06:33:08.293Z,1.00
2023-12-30T06:35:59.795Z,1.23
2023-12-30T06:38:51.534Z,4.38
2023-12-30T06:41:42.734Z,1.08
2023-12-30T06:44:33.535Z,1.13
2023-12-30T06:47:24.244Z,0.60
2023-12-30T06:50:18.682Z,0.93
2023-12-30T06:53:11.233Z,0.63
2023-12-30T06:56:02.830Z,3.58
2023-12-30T06:58:53.596Z,1.23
2023-12-30T07:01:44.476Z,3.35
2023-12-30T07:04:35.361Z,1.60
2023-12-30T07:07:26.110Z,2.88
2023-12-30T07:10:16.874Z,0.80
2023-12-30T07:13:08.151Z,0.40
2023-12-30T07:15:59.046Z,0.70
2023-12-30T07:18:49.769Z,1.27
2023-12-30T07:21:40.461Z,0.70
2023-12-30T07:24:31.184Z,1.40
2023-12-30T07:27:21.900Z,1.35
2023-12-30T07:30:13.111Z,0.77
2023-12-30T07:33:04.646Z,5.55
2023-12-30T07:35:56.276Z,3.45
2023-12-30T07:38:46.990Z,2.47
2023-12-30T07:41:39.727Z,0.40
2023-12-30T07:44:30.804Z,0.90
2023-12-30T07:47:21.891Z,4.20
2023-12-30T07:50:12.775Z,2.17
2023-12-30T07:53:04.973Z,2.90
2023-12-30T07:55:56.030Z,1.10
2023-12-30T07:58:46.723Z,0.98
2023-12-30T08:01:44.321Z,2.92
2023-12-30T08:04:35.103Z,5.60
2023-12-30T08:07:26.466Z,4.43
2023-12-30T08:10:18.112Z,15.30
2023-12-30T08:13:09.337Z,3.05
2023-12-30T08:16:00.375Z,1.00
2023-12-30T08:18:51.184Z,1.48
2023-12-30T08:21:42.051Z,1.85
2023-12-30T08:24:32.812Z,1.38
2023-12-30T08:27:23.743Z,3.30
2023-12-30T08:30:14.621Z,3.05
2023-12-30T08:33:09.089Z,1.33
2023-12-30T08:36:00.453Z,2.10
2023-12-30T08:38:51.113Z,8.80
2023-12-30T08:41:42.740Z,1.13
2023-12-30T08:44:34.022Z,6.82
2023-12-30T08:47:24.808Z,6.07
2023-12-30T08:50:15.692Z,2.03
2023-12-30T08:53:06.429Z,1.67
2023-12-30T08:55:57.768Z,2.10
2023-12-30T08:58:48.568Z,1.83
2023-12-30T09:01:39.394Z,4.65
2023-12-30T09:04:30.554Z,3.95
2023-12-30T09:07:22.450Z,3.03
2023-12-30T09:10:13.176Z,7.63
2023-12-30T09:13:04.826Z,2.03
2023-12-30T09:15:55.961Z,2.67
2023-12-30T09:18:46.963Z,2.58
2023-12-30T09:21:37.717Z,2.65
2023-12-30T09:24:28.411Z,1.55
2023-12-30T09:27:19.462Z,3.38
2023-12-30T09:30:10.723Z,4.15
2023-12-30T09:33:01.891Z,1.70
2023-12-30T09:35:55.973Z,1.67
2023-12-30T09:38:46.798Z,2.80
2023-12-30T09:41:41.200Z,3.92
2023-12-30T09:44:33.411Z,4.13
2023-12-30T09:47:25.292Z,2.78
2023-12-30T09:50:16.549Z,1.20
2023-12-30T09:53:07.802Z,0.35
2023-12-30T09:55:59.423Z,1.60
2023-12-30T09:58:56.203Z,2.45
2023-12-30T10:01:47.538Z,5.72
2023-12-30T10:04:39.123Z,4.78
2023-12-30T10:07:32.912Z,0.88
2023-12-30T10:10:47.612Z,0.90
2023-12-30T10:13:38.939Z,1.80
2023-12-30T10:16:31.081Z,0.75
2023-12-30T10:19:22.231Z,1.48
2023-12-30T10:22:13.233Z,28.33
2023-12-30T10:25:04.585Z,0.43
2023-12-30T10:27:56.137Z,0.30
2023-12-30T10:30:48.557Z,0.93
2023-12-30T10:33:41.950Z,1.13
2023-12-30T10:36:32.767Z,1.00
2023-12-30T10:39:23.975Z,0.50
2023-12-30T10:42:15.815Z,0.75
2023-12-30T10:45:07.294Z,3.70
2023-12-30T10:48:00.990Z,1.08
2023-12-30T10:50:55.369Z,0.35
2023-12-30T10:53:49.333Z,0.50
2023-12-30T10:56:58.881Z,8.25
2023-12-30T10:59:51.576Z,0.63
2023-12-30T11:02:43.096Z,3.03
2023-12-30T11:05:49.128Z,1.55
2023-12-30T11:08:45.006Z,1.90
2023-12-30T11:11:40.701Z,1.42
2023-12-30T11:14:32.712Z,1.48
2023-12-30T11:17:36.986Z,1.65
2023-12-30T11:20:35.704Z,0.70
2023-12-30T11:23:28.565Z,2.47
2023-12-30T11:26:19.456Z,1.23
2023-12-30T11:29:12.919Z,0.50
2023-12-30T11:32:03.841Z,2.17
2023-12-30T11:34:56.135Z,5.68
2023-12-30T11:37:55.907Z,2.75
2023-12-30T11:40:54.432Z,1.00
2023-12-30T11:43:45.427Z,3.10
2023-12-30T11:46:37.314Z,5.25
2023-12-30T11:49:28.340Z,0.88
2023-12-30T11:52:19.312Z,6.38
2023-12-30T11:55:10.926Z,8.57
2023-12-30T11:58:01.641Z,5.28
2023-12-30T12:00:52.475Z,8.30
2023-12-30T12:03:43.258Z,3.95
2023-12-30T12:06:34.061Z,12.25
2023-12-30T12:09:24.838Z,6.45
2023-12-30T12:12:23.237Z,6.00
2023-12-30T12:15:14.734Z,1.27
2023-12-30T12:18:05.948Z,1.42
2023-12-30T12:20:56.720Z,3.42
2023-12-30T12:23:47.495Z,1.45
2023-12-30T12:26:38.687Z,1.77
2023-12-30T12:29:30.293Z,4.38
2023-12-30T12:32:23.122Z,3.88
2023-12-30T12:35:13.933Z,1.08
2023-12-30T12:38:05.097Z,2.30
2023-12-30T12:40:55.833Z,3.08
2023-12-30T12:43:46.654Z,2.78
2023-12-30T12:46:38.299Z,4.10
2023-12-30T12:49:29.341Z,2.42
2023-12-30T12:52:20.199Z,3.38
2023-12-30T12:55:11.310Z,2.28
2023-12-30T12:58:02.148Z,8.70
2023-12-30T13:00:52.926Z,9.05
2023-12-30T13:03:43.761Z,5.85
2023-12-30T13:06:34.484Z,5.47
2023-12-30T13:09:36.419Z,4.68
2023-12-30T13:12:27.443Z,5.07
2023-12-30T13:15:21.091Z,5.43
2023-12-30T13:18:17.412Z,3.60
2023-12-30T13:21:09.565Z,4.82
2023-12-30T13:24:00.380Z,8.00
2023-12-30T13:26:51.436Z,5.45
2023-12-30T13:29:44.203Z,6.03
2023-12-30T13:32:36.520Z,12.35
2023-12-30T13:35:31.312Z,7.63
2023-12-30T13:38:24.761Z,13.02
2023-12-30T13:41:15.886Z,13.50
2023-12-30T13:44:10.871Z,7.38
2023-12-30T13:47:21.532Z,21.48
2023-12-30T13:50:12.286Z,16.38
2023-12-30T13:53:04.725Z,31.75
2023-12-30T13:56:04.480Z,15.25
2023-12-30T13:58:58.549Z,18.80
2023-12-30T14:01:49.438Z,21.05
2023-12-30T14:04:41.574Z,38.08
2023-12-30T14:07:32.506Z,11.48
2023-12-30T14:10:26.613Z,17.75
2023-12-30T14:13:20.858Z,23.75
2023-12-30T14:16:14.621Z,8.00
2023-12-30T14:19:05.865Z,10.50
2023-12-30T14:21:56.623Z,13.77
2023-12-30T14:24:48.055Z,14.52
2023-12-30T14:27:41.628Z,20.00
2023-12-30T14:30:33.890Z,11.73
2023-12-30T14:33:24.773Z,16.35
2023-12-30T14:36:17.139Z,12.05
2023-12-30T14:39:11.025Z,7.57
2023-12-30T14:42:04.093Z,12.32
2023-12-30T14:44:54.795Z,8.23
2023-12-30T14:47:47.218Z,16.08
2023-12-30T14:50:38.012Z,15.00
2023-12-30T14:53:28.720Z,17.58
2023-12-30T14:56:21.143Z,11.68
2023-12-30T14:59:13.664Z,14.68
2023-12-30T15:02:05.555Z,16.85
2023-12-30T15:04:56.356Z,39.03
2023-12-30T15:07:47.163Z,40.42
2023-12-30T15:10:38.016Z,22.42
2023-12-30T15:13:28.824Z,23.77
2023-12-30T15:16:19.655Z,14.32
2023-12-30T15:19:10.829Z,14.77
2023-12-30T15:22:01.671Z,23.10
2023-12-30T15:24:52.513Z,23.42
2023-12-30T15:27:44.301Z,37.30
2023-12-30T15:30:35.095Z,25.98
2023-12-30T15:33:28.129Z,36.35
2023-12-30T15:36:18.966Z,55.40
2023-12-30T15:39:09.838Z,32.15
2023-12-30T15:42:00.708Z,29.48
2023-12-30T15:44:51.442Z,12.70
2023-12-30T15:47:43.610Z,17.20
2023-12-30T15:50:35.412Z,13.18
2023-12-30T15:53:26.460Z,12.43
2023-12-30T15:56:17.207Z,25.90
2023-12-30T15:59:07.902Z,21.10
2023-12-30T16:01:58.680Z,14.05
2023-12-30T16:04:49.645Z,29.33
2023-12-30T16:07:40.615Z,18.00
2023-12-30T16:10:32.461Z,25.83
2023-12-30T16:13:23.375Z,20.67
2023-12-30T16:16:14.099Z,25.90
2023-12-30T16:19:05.171Z,21.05
2023-12-30T16:21:56.101Z,26.58
2023-12-30T16:24:46.808Z,40.30
2023-12-30T16:27:37.552Z,15.60
2023-12-30T16:30:28.460Z,17.45
2023-12-30T16:33:19.397Z,39.75
2023-12-30T16:36:10.622Z,29.58
2023-12-30T16:39:02.302Z,29.73
2023-12-30T16:41:53.946Z,28.70
2023-12-30T16:44:44.726Z,24.85
2023-12-30T16:47:37.980Z,29.27
2023-12-30T16:50:28.964Z,21.73
2023-12-30T16:53:19.737Z,37.78
2023-12-30T16:56:10.859Z,13.45
2023-12-30T16:59:01.855Z,26.58
2023-12-30T17:01:52.682Z,38.08
2023-12-30T17:04:43.521Z,23.10
2023-12-30T17:07:34.579Z,24.98
2023-12-30T17:10:25.397Z,29.52
2023-12-30T17:13:16.136Z,39.40
2023-12-30T17:16:07.772Z,31.80
2023-12-30T17:18:59.607Z,29.98
2023-12-30T17:21:50.415Z,16.40
2023-12-30T17:24:41.881Z,17.35
2023-12-30T17:27:32.634Z,17.75
2023-12-30T17:30:24.379Z,16.95
2023-12-30T17:33:15.177Z,19.30
2023-12-30T17:36:06.490Z,22.63
2023-12-30T17:38:57.588Z,17.08
2023-12-30T17:41:48.439Z,4.78
2023-12-30T17:44:39.222Z,3.85
2023-12-30T17:47:32.455Z,9.68
2023-12-30T17:50:23.203Z,4.32
2023-12-30T17:53:13.988Z,3.80
2023-12-30T17:56:05.279Z,4.45
2023-12-30T17:58:59.045Z,9.52
2023-12-30T18:01:50.754Z,5.25
2023-12-30T18:04:42.048Z,4.30
2023-12-30T18:07:32.979Z,7.13
2023-12-30T18:10:23.738Z,9.02
2023-12-30T18:13:14.584Z,10.65
2023-12-30T18:16:05.964Z,9.35
2023-12-30T18:18:56.951Z,5.90
2023-12-30T18:21:47.756Z,6.32
2023-12-30T18:24:39.052Z,6.72
2023-12-30T18:27:29.804Z,9.52
2023-12-30T18:30:20.537Z,15.43
2023-12-30T18:33:14.373Z,7.13
2023-12-30T18:36:07.565Z,2.35
2023-12-30T18:38:58.335Z,7.78
2023-12-30T18:41:49.548Z,6.57
2023-12-30T18:44:40.973Z,1.58
2023-12-30T18:47:31.698Z,3.22
2023-12-30T18:50:22.673Z,4.13
2023-12-30T18:53:13.474Z,11.70
2023-12-30T18:56:04.737Z,20.52
2023-12-30T18:58:55.526Z,24.95
2023-12-30T19:01:46.973Z,25.27
2023-12-30T19:04:38.205Z,19.90
2023-12-30T19:07:29.083Z,14.35
2023-12-30T19:10:20.736Z,20.52
2023-12-30T19:13:11.522Z,31.20
2023-12-30T19:16:02.514Z,21.48
2023-12-30T19:18:53.317Z,12.13
2023-12-30T19:21:44.097Z,12.23
2023-12-30T19:24:37.857Z,12.57
2023-12-30T19:27:28.955Z,14.93
2023-12-30T19:30:19.734Z,10.07
2023-12-30T19:33:13.168Z,5.38
2023-12-30T19:36:05.424Z,5.15
2023-12-30T19:38:56.598Z,15.05
2023-12-30T19:41:47.786Z,26.05
2023-12-30T19:44:38.615Z,34.20
2023-12-30T19:47:29.392Z,36.05
2023-12-30T19:50:20.155Z,21.17
2023-12-30T19:53:13.777Z,18.95
2023-12-30T19:56:05.051Z,16.52
2023-12-30T19:58:55.834Z,17.75
2023-12-30T20:01:50.234Z,21.00
2023-12-30T20:04:44.064Z,20.73
2023-12-30T20:07:34.798Z,19.33
2023-12-30T20:10:25.553Z,23.77
2023-12-30T20:13:16.492Z,18.05
2023-12-30T20:16:12.526Z,23.13
2023-12-30T20:19:03.626Z,20.50
2023-12-30T20:21:54.536Z,18.92
2023-12-30T20:24:45.261Z,24.00
2023-12-30T20:27:37.286Z,16.25
2023-12-30T20:30:28.099Z,12.20
2023-12-30T20:33:20.460Z,15.93
2023-12-30T20:36:13.057Z,8.77
2023-12-30T20:39:06.478Z,13.20
2023-12-30T20:41:57.236Z,28.45
2023-12-30T20:44:47.966Z,22.38
2023-12-30T20:47:38.841Z,13.68
2023-12-30T20:50:29.666Z,16.70
2023-12-30T20:53:20.366Z,9.50
2023-12-30T20:56:11.069Z,18.52
2023-12-30T20:59:01.856Z,16.23
2023-12-30T21:01:52.642Z,26.98
2023-12-30T21:04:43.396Z,12.65
2023-12-30T21:07:35.773Z,35.60
2023-12-30T21:10:26.614Z,29.52
2023-12-30T21:13:17.443Z,18.05
2023-12-30T21:16:08.368Z,17.13
2023-12-30T21:18:59.183Z,17.85
2023-12-30T21:21:50.145Z,14.18
2023-12-30T21:24:40.871Z,47.65
2023-12-30T21:27:31.581Z,19.70
2023-12-30T21:30:25.093Z,10.63
2023-12-30T21:33:15.911Z,54.72
2023-12-30T21:36:07.557Z,17.52
2023-12-30T21:38:58.332Z,16.75
2023-12-30T21:41:49.014Z,16.30
2023-12-30T21:44:42.808Z,24.25
2023-12-30T21:47:36.928Z,13.50
2023-12-30T21:50:28.026Z,13.73
2023-12-30T21:53:18.938Z,17.25
2023-12-30T21:56:09.647Z,27.55
2023-12-30T21:59:00.411Z,20.15
2023-12-30T22:01:51.204Z,23.73
2023-12-30T22:04:42.072Z,21.70
2023-12-30T22:07:32.908Z,27.25
2023-12-30T22:10:23.697Z,21.13
2023-12-30T22:13:15.494Z,21.10
2023-12-30T22:16:06.379Z,18.65
2023-12-30T22:18:57.209Z,30.80
2023-12-30T22:21:47.970Z,44.40
2023-12-30T22:24:38.685Z,48.65
2023-12-30T22:27:30.055Z,49.17
2023-12-30T22:30:20.828Z,30.80
2023-12-30T22:33:11.663Z,14.00
2023-12-30T22:36:02.389Z,18.83
2023-12-30T22:38:53.084Z,18.92
2023-12-30T22:41:43.851Z,18.25
2023-12-30T22:44:38.435Z,15.50
2023-12-30T22:47:29.468Z,17.95
2023-12-30T22:50:24.957Z,17.70
2023-12-30T22:53:15.804Z,27.67
2023-12-30T22:56:08.727Z,30.90
2023-12-30T22:59:01.680Z,30.50
2023-12-30T23:01:52.429Z,55.85
2023-12-30T23:04:43.229Z,60.30
2023-12-30T23:07:37.203Z,31.42
2023-12-30T23:10:28.732Z,40.40
2023-12-30T23:13:20.363Z,38.30
2023-12-30T23:16:14.449Z,52.08
2023-12-30T23:19:05.413Z,40.08
2023-12-30T23:21:56.335Z,29.08
2023-12-30T23:24:47.083Z,22.85
2023-12-30T23:27:37.872Z,24.67
2023-12-30T23:30:28.633Z,35.25
2023-12-30T23:33:19.454Z,26.92
2023-12-30T23:36:10.620Z,24.23
2023-12-30T23:39:01.387Z,15.43
2023-12-30T23:41:52.222Z,20.10
2023-12-30T23:44:44.073Z,23.05
2023-12-30T23:47:35.124Z,28.30
2023-12-30T23:50:25.949Z,22.52
2023-12-30T23:53:16.764Z,18.80
2023-12-30T23:56:07.568Z,15.80
2023-12-30T23:58:58.266Z,14.55
